Time;durP1;ratioP1;P1;durP2;ratioP2;P2;SDS_P1;SDS_P2;PMS_P1;PMS_P2;Temp;Humidity;BMP_temperature;BMP_pressure;BME280_temperature;BME280_humidity;BME280_pressure;Samples;Min_cycle;Max_cycle;Signal;HPM_P1;HPM_P2
2021/12/11 00:01:19;;;;;;;;;;;;;;;;;;5026240;28;19936;-70
2021/12/11 00:03:44;;;;;;;;;;;;;;;;;;5024774;28;19917;-70
2021/12/11 00:06:10;;;;;;;;;;;;;;;;;;5025383;28;19931;-69
2021/12/11 00:08:35;;;;;;;;;;;;;;;;;;5027251;28;20361;-69
2021/12/11 00:11:00;;;;;;;;;;;;;;;;;;5025247;28;20465;-71
2021/12/11 00:13:25;;;;;;;;;;;;;;;;;;5041167;28;20273;-69
2021/12/11 00:15:51;;;;;;;;;;;;;;;;;;5025863;28;20255;-69
2021/12/11 00:18:16;;;;;;;;;;;;;;;;;;5026354;28;19955;-71
2021/12/11 00:20:41;;;;;;;;;;;;;;;;;;5027842;28;19963;-70
2021/12/11 00:23:06;;;;;;;;;;;;;;;;;;5025513;28;19917;-72
2021/12/11 00:25:31;;;;;;;;;;;;;;;;;;5007866;28;20325;-71
2021/12/11 00:27:57;;;;;;;;;;;;;;;;;;5026721;28;19917;-72
2021/12/11 00:30:22;;;;;;;;;;;;;;;;;;5041111;28;19940;-70
2021/12/11 00:32:47;;;;;;;;;;;;;;;;;;5028417;28;20175;-69
2021/12/11 00:35:12;;;;;;;;;;;;;;;;;;5023069;28;19917;-71
2021/12/11 00:37:38;;;;;;;;;;;;;;;;;;5024979;28;19920;-68
2021/12/11 00:40:03;;;;;;;;;;;;;;;;;;5041032;28;19921;-68
2021/12/11 00:42:33;;;;;;;;;;;;;;;;;;5026211;28;19964;-70
2021/12/11 00:44:59;;;;;;;;;;;;;;;;;;5026205;28;19913;-68
2021/12/11 00:47:24;;;;;;;;;;;;;;;;;;5024931;28;19916;-70
2021/12/11 00:49:49;;;;;;;;;;;;;;;;;;5042035;28;19929;-69
2021/12/11 00:52:15;;;;;;;;;;;;;;;;;;5026702;28;19921;-71
2021/12/11 00:54:40;;;;;;;;;;;;;;;;;;5028873;28;19922;-69
2021/12/11 00:57:05;;;;;;;;;;;;;;;;;;5026202;28;19920;-70
2021/12/11 00:59:30;;;;;;;;;;;;;;;;;;5026275;28;19928;-67
2021/12/11 01:01:56;;;;;;;;;;;;;;;;;;5018189;28;19921;-66
2021/12/11 01:04:21;;;;;;;;;;;;;;;;;;5022790;28;19921;-66
2021/12/11 01:06:48;;;;;;;;;;;;;;;;;;5024397;28;19917;-68
2021/12/11 01:09:14;;;;;;;;;;;;;;;;;;5023709;28;19917;-67
2021/12/11 01:11:40;;;;;;;;;;;;;;;;;;5022696;28;19924;-66
2021/12/11 01:14:16;;;;;;;;;;;;;;;;;;5024604;28;19917;-67
2021/12/11 01:16:41;;;;;;;;;;;;;;;;;;5011992;28;19921;-65
2021/12/11 01:19:06;;;;;;;;;;;;;;;;;;5023507;28;19928;-72
2021/12/11 01:21:43;;;;;;;;;;;;;;;;;;5022014;28;20281;-72
2021/12/11 01:24:12;;;;;;;;;;;;;;;;;;5024199;28;19921;-69
2021/12/11 01:26:37;;;;;;;;;;;;;;;;;;5023761;28;19924;-70
2021/12/11 01:29:02;;;;;;;;;;;;;;;;;;5039246;28;19917;-69
2021/12/11 01:31:28;;;;;;;;;;;;;;;;;;5023342;28;19990;-66
2021/12/11 01:33:53;;;;;;;;;;;;;;;;;;5024220;28;20083;-66
2021/12/11 01:36:18;;;;;;;;;;;;;;;;;;5024564;28;19921;-69
2021/12/11 01:38:43;;;;;;;;;;;;;;;;;;5026669;28;20293;-69
2021/12/11 01:41:09;;;;;;;;;;;;;;;;;;5026635;28;19960;-67
2021/12/11 01:43:34;;;;;;;;;;;;;;;;;;5039668;28;20008;-71
2021/12/11 01:45:59;;;;;;;;;;;;;;;;;;5025491;28;20020;-69
2021/12/11 01:48:24;;;;;;;;;;;;;;;;;;5024488;28;19991;-70
2021/12/11 01:50:49;;;;;;;;;;;;;;;;;;5024968;28;19959;-68
2021/12/11 01:53:15;;;;;;;;;;;;;;;;;;5025080;28;19935;-69
2021/12/11 01:55:40;;;;;;;;;;;;;;;;;;5025068;28;20135;-66
2021/12/11 01:58:05;;;;;;;;;;;;;;;;;;5026001;28;20126;-67
2021/12/11 02:00:30;;;;;;;;;;;;;;;;;;5024970;28;19929;-69
2021/12/11 02:02:56;;;;;;;;;;;;;;;;;;5015788;28;19913;-67
2021/12/11 02:05:21;;;;;;;;;;;;;;;;;;5024983;28;20337;-65
2021/12/11 02:07:46;;;;;;;;;;;;;;;;;;5025759;28;19917;-67
2021/12/11 02:10:11;;;;;;;;;;;;;;;;;;5041127;28;19956;-69
2021/12/11 02:12:38;;;;;;;;;;;;;;;;;;5038480;28;20382;-71
2021/12/11 02:15:03;;;;;;;;;;;;;;;;;;5024310;28;19924;-68
2021/12/11 02:17:29;;;;;;;;;;;;;;;;;;5024784;28;19917;-68
2021/12/11 02:19:54;;;;;;;;;;;;;;;;;;5024039;28;19921;-69
2021/12/11 02:22:19;;;;;;;;;;;;;;;;;;5025315;28;19921;-68
2021/12/11 02:24:44;;;;;;;;;;;;;;;;;;5025935;28;19925;-71
2021/12/11 02:27:10;;;;;;;;;;;;;;;;;;5025451;28;19932;-70
2021/12/11 02:29:35;;;;;;;;;;;;;;;;;;5029546;28;20369;-67
2021/12/11 02:32:00;;;;;;;;;;;;;;;;;;5027015;28;19940;-66
2021/12/11 02:34:26;;;;;;;;;;;;;;;;;;5028899;28;20355;-68
2021/12/11 02:36:51;;;;;;;;;;;;;;;;;;5027465;28;19965;-70
2021/12/11 02:39:16;;;;;;;;;;;;;;;;;;5028973;28;19928;-66
2021/12/11 02:41:41;;;;;;;;;;;;;;;;;;5028939;28;19921;-71
2021/12/11 02:44:06;;;;;;;;;;;;;;;;;;5027745;28;19917;-70
2021/12/11 02:46:32;;;;;;;;;;;;;;;;;;5028718;28;19924;-68
2021/12/11 02:48:57;;;;;;;;;;;;;;;;;;5028402;28;19917;-73
2021/12/11 02:51:22;;;;;;;;;;;;;;;;;;5026805;28;19917;-70
2021/12/11 02:53:47;;;;;;;;;;;;;;;;;;5029902;28;19921;-68
2021/12/11 02:56:13;;;;;;;;;;;;;;;;;;5044199;28;20046;-66
2021/12/11 02:58:38;;;;;;;;;;;;;;;;;;5027907;28;20354;-68
2021/12/11 03:01:04;;;;;;;;;;;;;;;;;;5028537;28;20665;-70
2021/12/11 03:03:31;;;;;;;;;;;;;;;;;;5041069;28;20391;-71
2021/12/11 03:06:09;;;;;;;;;;;;;;;;;;5042696;28;20373;-66
2021/12/11 03:08:34;;;;;;;;;;;;;;;;;;5029107;28;19991;-68
2021/12/11 03:10:59;;;;;;;;;;;;;;;;;;5043152;28;19919;-68
2021/12/11 03:13:27;;;;;;;;;;;;;;;;;;5027629;28;19913;-68
2021/12/11 03:15:52;;;;;;;;;;;;;;;;;;5027559;28;19928;-69
2021/12/11 03:18:17;;;;;;;;;;;;;;;;;;5027862;28;19912;-67
2021/12/11 03:20:42;;;;;;;;;;;;;;;;;;5026478;28;19921;-67
2021/12/11 03:23:08;;;;;;;;;;;;;;;;;;5027621;28;19925;-68
2021/12/11 03:25:33;;;;;;;;;;;;;;;;;;5027410;28;19925;-68
2021/12/11 03:27:58;;;;;;;;;;;;;;;;;;5028749;28;19964;-68
2021/12/11 03:30:24;;;;;;;;;;;;;;;;;;5028818;28;19913;-68
2021/12/11 03:32:49;;;;;;;;;;;;;;;;;;5027914;28;20374;-72
2021/12/11 03:35:14;;;;;;;;;;;;;;;;;;5027593;28;19913;-68
2021/12/11 03:37:39;;;;;;;;;;;;;;;;;;5028529;28;19921;-67
2021/12/11 03:40:04;;;;;;;;;;;;;;;;;;5027406;28;19921;-66
2021/12/11 03:42:30;;;;;;;;;;;;;;;;;;5027157;28;19931;-65
2021/12/11 03:44:55;;;;;;;;;;;;;;;;;;5027351;28;20239;-67
2021/12/11 03:47:20;;;;;;;;;;;;;;;;;;5027780;28;19960;-68
2021/12/11 03:49:46;;;;;;;;;;;;;;;;;;5026538;28;19917;-66
2021/12/11 03:52:11;;;;;;;;;;;;;;;;;;5029379;28;19921;-67
2021/12/11 03:54:36;;;;;;;;;;;;;;;;;;5026358;28;20428;-68
2021/12/11 03:57:01;;;;;;;;;;;;;;;;;;5026297;28;20333;-66
2021/12/11 03:59:27;;;;;;;;;;;;;;;;;;5027418;28;19917;-70
2021/12/11 04:01:52;;;;;;;;;;;;;;;;;;5026537;28;19929;-68
2021/12/11 04:04:17;;;;;;;;;;;;;;;;;;5026641;28;19923;-68
2021/12/11 04:06:42;;;;;;;;;;;;;;;;;;5028204;28;19960;-68
2021/12/11 04:09:08;;;;;;;;;;;;;;;;;;5027830;28;20011;-68
2021/12/11 04:11:33;;;;;;;;;;;;;;;;;;5042532;28;19921;-69
2021/12/11 04:13:58;;;;;;;;;;;;;;;;;;5014388;28;20000;-66
2021/12/11 04:16:23;;;;;;;;;;;;;;;;;;5026819;28;19917;-65
2021/12/11 04:18:48;;;;;;;;;;;;;;;;;;5027719;28;19921;-65
2021/12/11 04:21:14;;;;;;;;;;;;;;;;;;5027281;28;19921;-72
2021/12/11 04:23:39;;;;;;;;;;;;;;;;;;5027075;28;19972;-71
2021/12/11 04:26:04;;;;;;;;;;;;;;;;;;5027156;28;19917;-66
2021/12/11 04:28:30;;;;;;;;;;;;;;;;;;5043011;28;20007;-66
2021/12/11 04:31:02;;;;;;;;;;;;;;;;;;5027218;28;19917;-69
2021/12/11 04:33:27;;;;;;;;;;;;;;;;;;5024487;28;20382;-70
2021/12/11 04:35:52;;;;;;;;;;;;;;;;;;5024153;28;21099;-68
2021/12/11 04:38:17;;;;;;;;;;;;;;;;;;5026634;28;19917;-68
2021/12/11 04:40:43;;;;;;;;;;;;;;;;;;5027488;28;19917;-69
2021/12/11 04:43:18;;;;;;;;;;;;;;;;;;5027541;28;20445;-66
2021/12/11 04:45:43;;;;;;;;;;;;;;;;;;5042714;28;19921;-69
2021/12/11 04:48:18;;;;;;;;;;;;;;;;;;5025852;28;20000;-69
2021/12/11 04:53:41;;;;;;;;;;;;;;;;;;5027145;28;20007;-66
2021/12/11 05:02:08;;;;;;;;;;;;;;;;;;4980690;28;19921;-65
2021/12/11 05:09:42;;;;;;;;;;;;;;;;;;5025863;28;19923;-66
2021/12/11 05:12:17;;;;;;;;;;;;;;;;;;5025672;28;20370;-65
2021/12/11 05:14:43;;;;;;;;;;;;;;;;;;5025487;28;19917;-64
2021/12/11 05:17:08;;;;;;;;;;;;;;;;;;5026353;28;19917;-68
2021/12/11 05:19:33;;;;;;;;;;;;;;;;;;5024049;28;20349;-66
2021/12/11 05:21:58;;;;;;;;;;;;;;;;;;5024074;28;19921;-71
2021/12/11 05:24:24;;;;;;;;;;;;;;;;;;5025061;28;19921;-65
2021/12/11 05:26:51;;;;;;;;;;;;;;;;;;5040448;28;21312;-69
2021/12/11 05:29:16;;;;;;;;;;;;;;;;;;5027601;28;19913;-66
2021/12/11 05:31:41;;;;;;;;;;;;;;;;;;5022969;28;19959;-67
2021/12/11 05:34:06;;;;;;;;;;;;;;;;;;5025986;28;19983;-66
2021/12/11 05:36:32;;;;;;;;;;;;;;;;;;5024854;28;20036;-69
2021/12/11 05:38:57;;;;;;;;;;;;;;;;;;5028207;28;19927;-68
2021/12/11 05:41:22;;;;;;;;;;;;;;;;;;5026209;28;19914;-67
2021/12/11 05:43:47;;;;;;;;;;;;;;;;;;5026014;28;19924;-66
2021/12/11 05:46:13;;;;;;;;;;;;;;;;;;5024957;28;20286;-70
2021/12/11 05:48:38;;;;;;;;;;;;;;;;;;5020243;28;19921;-65
2021/12/11 05:51:03;;;;;;;;;;;;;;;;;;5025542;28;19917;-66
2021/12/11 05:53:31;;;;;;;;;;;;;;;;;;5024808;28;19917;-65
2021/12/11 05:55:57;;;;;;;;;;;;;;;;;;5024289;28;19960;-65
2021/12/11 05:58:46;;;;;;;;;;;;;;;;;;5039063;28;19921;-65
2021/12/11 06:01:11;;;;;;;;;;;;;;;;;;5025334;28;20317;-68
2021/12/11 06:03:37;;;;;;;;;;;;;;;;;;5025736;28;19917;-65
2021/12/11 06:06:02;;;;;;;;;;;;;;;;;;5025906;28;20453;-67
2021/12/11 06:08:27;;;;;;;;;;;;;;;;;;5025910;28;19999;-66
2021/12/11 06:10:53;;;;;;;;;;;;;;;;;;5024244;28;19921;-67
2021/12/11 06:13:18;;;;;;;;;;;;;;;;;;5023138;28;19917;-67
2021/12/11 06:15:43;;;;;;;;;;;;;;;;;;5029949;28;19944;-68
2021/12/11 06:18:14;;;;;;;;;;;;;;;;;;5029188;28;19913;-68
2021/12/11 06:20:39;;;;;;;;;;;;;;;;;;5028977;28;20096;-67
2021/12/11 06:23:04;;;;;;;;;;;;;;;;;;5029488;28;19944;-67
2021/12/11 06:25:29;;;;;;;;;;;;;;;;;;5022541;28;19952;-69
2021/12/11 06:27:55;;;;;;;;;;;;;;;;;;5028713;28;19924;-69
2021/12/11 06:30:21;;;;;;;;;;;;;;;;;;5029167;28;19913;-70
2021/12/11 06:32:46;;;;;;;;;;;;;;;;;;5029849;28;20325;-66
2021/12/11 06:35:11;;;;;;;;;;;;;;;;;;5030969;28;19917;-66
2021/12/11 06:37:36;;;;;;;;;;;;;;;;;;5028943;28;19975;-67
2021/12/11 06:40:02;;;;;;;;;;;;;;;;;;5030500;28;19925;-70
2021/12/11 06:42:28;;;;;;;;;;;;;;;;;;5028993;28;19921;-67
2021/12/11 06:44:53;;;;;;;;;;;;;;;;;;5028066;28;19916;-67
2021/12/11 06:47:18;;;;;;;;;;;;;;;;;;5042855;28;19967;-67
2021/12/11 06:49:44;;;;;;;;;;;;;;;;;;5027580;28;19917;-66
2021/12/11 06:52:09;;;;;;;;;;;;;;;;;;5029099;28;20386;-68
2021/12/11 06:54:34;;;;;;;;;;;;;;;;;;5028865;28;19921;-68
2021/12/11 06:56:59;;;;;;;;;;;;;;;;;;5026515;28;19948;-68
2021/12/11 06:59:24;;;;;;;;;;;;;;;;;;5026722;28;19928;-68
2021/12/11 07:01:50;;;;;;;;;;;;;;;;;;5028264;28;19921;-69
2021/12/11 07:04:15;;;;;;;;;;;;;;;;;;5027940;28;19917;-68
2021/12/11 07:06:40;;;;;;;;;;;;;;;;;;5033076;28;19923;-71
2021/12/11 07:09:05;;;;;;;;;;;;;;;;;;5026933;28;20358;-69
2021/12/11 07:11:31;;;;;;;;;;;;;;;;;;5027381;28;19917;-67
2021/12/11 07:13:56;;;;;;;;;;;;;;;;;;5027233;28;19917;-66
2021/12/11 07:16:21;;;;;;;;;;;;;;;;;;5027107;28;19931;-69
2021/12/11 07:18:46;;;;;;;;;;;;;;;;;;5026990;28;20259;-66
2021/12/11 07:21:11;;;;;;;;;;;;;;;;;;5028156;28;20012;-67
2021/12/11 07:23:37;;;;;;;;;;;;;;;;;;5029981;28;19917;-67
2021/12/11 07:26:02;;;;;;;;;;;;;;;;;;5027692;28;19921;-68
2021/12/11 07:28:27;;;;;;;;;;;;;;;;;;5021981;28;19917;-67
2021/12/11 07:30:52;;;;;;;;;;;;;;;;;;5027808;28;19921;-66
2021/12/11 07:33:18;;;;;;;;;;;;;;;;;;5027031;28;20006;-67
2021/12/11 07:35:43;;;;;;;;;;;;;;;;;;5028170;28;19963;-69
2021/12/11 07:38:08;;;;;;;;;;;;;;;;;;5028116;28;19921;-67
2021/12/11 07:40:33;;;;;;;;;;;;;;;;;;5028288;28;19951;-69
2021/12/11 07:42:58;;;;;;;;;;;;;;;;;;5026745;28;19990;-67
2021/12/11 07:45:24;;;;;;;;;;;;;;;;;;5025376;28;19919;-67
2021/12/11 07:47:49;;;;;;;;;;;;;;;;;;5027624;28;19924;-63
2021/12/11 07:50:14;;;;;;;;;;;;;;;;;;5027617;28;19920;-67
2021/12/11 07:52:39;;;;;;;;;;;;;;;;;;5026242;28;19956;-67
2021/12/11 07:55:05;;;;;;;;;;;;;;;;;;5026886;28;19913;-65
2021/12/11 07:57:30;;;;;;;;;;;;;;;;;;5042963;28;19917;-68
2021/12/11 07:59:55;;;;;;;;;;;;;;;;;;5026890;28;19921;-68
2021/12/11 08:02:20;;;;;;;;;;;;;;;;;;5021815;28;19925;-69
2021/12/11 08:04:46;;;;;;;;;;;;;;;;;;5027490;28;19917;-68
2021/12/11 08:07:11;;;;;;;;;;;;;;;;;;5026900;28;19925;-64
2021/12/11 08:09:36;;;;;;;;;;;;;;;;;;5027642;28;20437;-65
2021/12/11 08:12:01;;;;;;;;;;;;;;;;;;5025260;28;19987;-70
2021/12/11 08:14:26;;;;;;;;;;;;;;;;;;5027024;28;19949;-68
2021/12/11 08:16:54;;;;;;;;;;;;;;;;;;5027061;28;19917;-67
2021/12/11 08:19:19;;;;;;;;;;;;;;;;;;5024950;28;20426;-68
2021/12/11 08:21:44;;;;;;;;;;;;;;;;;;5023987;28;20019;-66
2021/12/11 08:24:09;;;;;;;;;;;;;;;;;;5026424;28;19913;-65
2021/12/11 08:26:35;;;;;;;;;;;;;;;;;;5024694;28;19929;-67
2021/12/11 08:29:00;;;;;;;;;;;;;;;;;;5026751;28;19917;-70
2021/12/11 08:31:25;;;;;;;;;;;;;;;;;;5040175;28;19971;-66
2021/12/11 08:33:51;;;;;;;;;;;;;;;;;;5024502;28;19967;-65
2021/12/11 08:36:16;;;;;;;;;;;;;;;;;;5040075;28;19921;-64
2021/12/11 08:38:41;;;;;;;;;;;;;;;;;;5027366;28;19939;-67
2021/12/11 08:41:06;;;;;;;;;;;;;;;;;;5026236;28;19921;-70
2021/12/11 08:43:31;;;;;;;;;;;;;;;;;;5040304;28;19971;-66
2021/12/11 08:46:07;;;;;;;;;;;;;;;;;;5006616;28;20293;-65
2021/12/11 08:48:32;;;;;;;;;;;;;;;;;;5026214;28;19921;-69
2021/12/11 08:50:58;;;;;;;;;;;;;;;;;;5024549;28;19928;-67
2021/12/11 08:53:23;;;;;;;;;;;;;;;;;;5025826;28;19917;-66
2021/12/11 08:55:48;;;;;;;;;;;;;;;;;;5026400;28;19949;-68
2021/12/11 08:58:14;;;;;;;;;;;;;;;;;;5024129;28;19995;-66
2021/12/11 09:00:39;;;;;;;;;;;;;;;;;;5024604;28;19928;-68
2021/12/11 09:03:04;;;;;;;;;;;;;;;;;;5040786;28;19917;-66
2021/12/11 09:05:29;;;;;;;;;;;;;;;;;;5025586;28;19924;-71
2021/12/11 09:07:54;;;;;;;;;;;;;;;;;;5026431;28;19917;-69
2021/12/11 09:10:20;;;;;;;;;;;;;;;;;;5026289;28;19992;-70
2021/12/11 09:12:45;;;;;;;;;;;;;;;;;;5025571;28;19917;-68
2021/12/11 09:15:10;;;;;;;;;;;;;;;;;;5029417;28;19963;-66
2021/12/11 09:17:35;;;;;;;;;;;;;;;;;;5026022;28;19917;-66
2021/12/11 09:20:01;;;;;;;;;;;;;;;;;;5025055;28;19928;-67
2021/12/11 09:22:26;;;;;;;;;;;;;;;;;;5024405;28;20151;-67
2021/12/11 09:24:51;;;;;;;;;;;;;;;;;;5025609;28;20031;-67
2021/12/11 09:27:17;;;;;;;;;;;;;;;;;;5025187;28;19913;-65
2021/12/11 09:29:42;;;;;;;;;;;;;;;;;;5025307;28;19924;-67
2021/12/11 09:32:07;;;;;;;;;;;;;;;;;;5024820;28;20282;-69
2021/12/11 09:34:32;;;;;;;;;;;;;;;;;;5022408;28;20301;-68
2021/12/11 09:36:57;;;;;;;;;;;;;;;;;;5039952;28;20367;-65
2021/12/11 09:39:23;;;;;;;;;;;;;;;;;;5038558;28;19921;-69
2021/12/11 09:41:48;;;;;;;;;;;;;;;;;;5021686;28;20048;-65
2021/12/11 09:44:15;;;;;;;;;;;;;;;;;;5037789;28;19913;-65
2021/12/11 09:46:40;;;;;;;;;;;;;;;;;;5023865;28;19917;-66
2021/12/11 09:49:05;;;;;;;;;;;;;;;;;;5024863;28;19913;-68
2021/12/11 09:51:33;;;;;;;;;;;;;;;;;;5039745;28;20263;-66
2021/12/11 09:53:58;;;;;;;;;;;;;;;;;;5039756;28;19917;-67
2021/12/11 09:56:24;;;;;;;;;;;;;;;;;;5023070;28;20393;-71
2021/12/11 09:58:49;;;;;;;;;;;;;;;;;;5038193;28;19924;-68
2021/12/11 10:01:14;;;;;;;;;;;;;;;;;;5026039;28;19956;-67
2021/12/11 10:03:41;;;;;;;;;;;;;;;;;;5039470;28;20386;-69
2021/12/11 10:06:13;;;;;;;;;;;;;;;;;;5022859;28;19917;-68
2021/12/11 10:08:41;;;;;;;;;;;;;;;;;;5025842;28;20484;-66
2021/12/11 10:11:07;;;;;;;;;;;;;;;;;;5024353;28;19913;-68
2021/12/11 10:13:32;;;;;;;;;;;;;;;;;;5022247;28;19921;-68
2021/12/11 10:15:57;;;;;;;;;;;;;;;;;;5024664;28;20301;-65
2021/12/11 10:18:24;;;;;;;;;;;;;;;;;;5025047;28;19944;-69
2021/12/11 10:20:49;;;;;;;;;;;;;;;;;;5024437;28;19929;-67
2021/12/11 10:23:14;;;;;;;;;;;;;;;;;;5024987;28;19971;-72
2021/12/11 10:25:39;;;;;;;;;;;;;;;;;;5024134;28;19917;-65
2021/12/11 10:28:04;;;;;;;;;;;;;;;;;;5039732;28;19917;-66
2021/12/11 10:30:30;;;;;;;;;;;;;;;;;;5039709;28;19917;-69
2021/12/11 10:32:55;;;;;;;;;;;;;;;;;;5024134;28;19917;-71
2021/12/11 10:35:20;;;;;;;;;;;;;;;;;;5024165;28;19921;-69
2021/12/11 10:37:46;;;;;;;;;;;;;;;;;;5027136;28;19921;-66
2021/12/11 10:40:11;;;;;;;;;;;;;;;;;;5027777;28;19975;-68
2021/12/11 10:42:36;;;;;;;;;;;;;;;;;;5025088;28;19918;-64
2021/12/11 10:45:01;;;;;;;;;;;;;;;;;;5025848;28;19917;-65
2021/12/11 10:47:26;;;;;;;;;;;;;;;;;;5025196;28;20329;-67
2021/12/11 10:49:52;;;;;;;;;;;;;;;;;;5026398;28;19975;-70
2021/12/11 10:52:17;;;;;;;;;;;;;;;;;;5027947;28;19917;-68
2021/12/11 10:54:42;;;;;;;;;;;;;;;;;;5027990;28;19968;-65
2021/12/11 10:57:07;;;;;;;;;;;;;;;;;;5028544;28;19953;-65
2021/12/11 10:59:33;;;;;;;;;;;;;;;;;;5028581;28;19927;-69
2021/12/11 11:01:58;;;;;;;;;;;;;;;;;;5022480;28;19921;-66
2021/12/11 11:04:23;;;;;;;;;;;;;;;;;;5021872;28;20342;-67
2021/12/11 11:06:48;;;;;;;;;;;;;;;;;;5024154;28;19917;-69
2021/12/11 11:09:14;;;;;;;;;;;;;;;;;;5024339;28;20015;-69
2021/12/11 11:11:39;;;;;;;;;;;;;;;;;;5023652;28;20318;-65
2021/12/11 11:14:04;;;;;;;;;;;;;;;;;;5024181;28;19913;-77
2021/12/11 11:16:29;;;;;;;;;;;;;;;;;;5025874;28;19960;-66
2021/12/11 11:18:55;;;;;;;;;;;;;;;;;;5027518;28;19925;-71
2021/12/11 11:21:20;;;;;;;;;;;;;;;;;;5026534;28;19921;-68
2021/12/11 11:23:45;;;;;;;;;;;;;;;;;;5028709;28;20437;-65
2021/12/11 11:26:10;;;;;;;;;;;;;;;;;;5024905;28;19917;-67
2021/12/11 11:28:36;;;;;;;;;;;;;;;;;;5039508;28;19921;-68
2021/12/11 11:31:01;;;;;;;;;;;;;;;;;;5026337;28;19917;-67
2021/12/11 11:33:27;;;;;;;;;;;;;;;;;;5026463;28;20012;-70
2021/12/11 11:35:52;;;;;;;;;;;;;;;;;;5025366;28;19918;-67
2021/12/11 11:38:17;;;;;;;;;;;;;;;;;;5026208;28;19913;-70
2021/12/11 11:40:42;;;;;;;;;;;;;;;;;;5026001;28;20519;-67
2021/12/11 11:43:08;;;;;;;;;;;;;;;;;;5026426;28;20792;-70
2021/12/11 11:45:33;;;;;;;;;;;;;;;;;;5041016;28;20390;-65
2021/12/11 11:47:58;;;;;;;;;;;;;;;;;;5025181;28;20377;-67
2021/12/11 11:50:23;;;;;;;;;;;;;;;;;;5024136;28;20259;-70
2021/12/11 11:52:48;;;;;;;;;;;;;;;;;;5011908;28;19924;-71
2021/12/11 11:55:14;;;;;;;;;;;;;;;;;;5024624;28;19913;-65
2021/12/11 11:57:39;;;;;;;;;;;;;;;;;;5025584;28;20205;-66
2021/12/11 12:00:04;;;;;;;;;;;;;;;;;;5029901;28;20008;-72
2021/12/11 12:02:37;;;;;;;;;;;;;;;;;;5038598;28;19971;-69
2021/12/11 12:05:02;;;;;;;;;;;;;;;;;;5024770;28;19969;-70
2021/12/11 12:07:29;;;;;;;;;;;;;;;;;;5023711;28;19925;-66
2021/12/11 12:09:54;;;;;;;;;;;;;;;;;;5025384;28;19917;-66
2021/12/11 12:12:22;;;;;;;;;;;;;;;;;;5022828;28;19920;-68
2021/12/11 12:14:47;;;;;;;;;;;;;;;;;;5024171;28;19917;-70
2021/12/11 12:17:13;;;;;;;;;;;;;;;;;;5021394;28;20778;-66
2021/12/11 12:19:38;;;;;;;;;;;;;;;;;;5012580;28;20409;-67
2021/12/11 12:22:03;;;;;;;;;;;;;;;;;;5022892;28;19917;-68
2021/12/11 12:24:31;;;;;;;;;;;;;;;;;;5018163;28;20324;-70
2021/12/11 12:26:56;;;;;;;;;;;;;;;;;;5038084;28;19913;-65
2021/12/11 12:29:21;;;;;;;;;;;;;;;;;;5031724;28;20007;-69
2021/12/11 12:31:46;;;;;;;;;;;;;;;;;;5019161;28;19917;-64
2021/12/11 12:34:12;;;;;;;;;;;;;;;;;;5024624;28;20320;-67
2021/12/11 12:36:37;;;;;;;;;;;;;;;;;;5019005;28;19921;-70
2021/12/11 12:39:02;;;;;;;;;;;;;;;;;;5025888;28;19968;-70
2021/12/11 12:41:27;;;;;;;;;;;;;;;;;;4995763;28;20020;-70
2021/12/11 12:44:06;;;;;;;;;;;;;;;;;;4979788;28;20017;-76
2021/12/11 12:46:31;;;;;;;;;;;;;;;;;;4985740;28;19944;-72
2021/12/11 12:48:56;;;;;;;;;;;;;;;;;;4977366;28;20358;-68
2021/12/11 12:51:21;;;;;;;;;;;;;;;;;;4985278;28;20364;-69
2021/12/11 12:53:47;;;;;;;;;;;;;;;;;;4978095;28;19953;-64
2021/12/11 12:56:12;;;;;;;;;;;;;;;;;;4978159;28;20013;-67
2021/12/11 12:58:37;;;;;;;;;;;;;;;;;;4973070;28;19918;-72
2021/12/11 13:01:02;;;;;;;;;;;;;;;;;;4976998;28;19933;-69
2021/12/11 13:03:28;;;;;;;;;;;;;;;;;;4984709;28;19917;-66
2021/12/11 13:05:53;;;;;;;;;;;;;;;;;;4979078;28;19929;-66
2021/12/11 13:08:18;;;;;;;;;;;;;;;;;;4979039;28;20401;-71
2021/12/11 13:10:44;;;;;;;;;;;;;;;;;;4985983;28;19926;-70
2021/12/11 13:13:09;;;;;;;;;;;;;;;;;;4975292;28;19914;-64
2021/12/11 13:15:34;;;;;;;;;;;;;;;;;;4985019;28;19921;-69
2021/12/11 13:17:59;;;;;;;;;;;;;;;;;;4978307;28;19918;-69
2021/12/11 13:20:25;;;;;;;;;;;;;;;;;;4979678;28;20311;-68
2021/12/11 13:22:50;;;;;;;;;;;;;;;;;;4984481;28;19924;-66
2021/12/11 13:25:19;;;;;;;;;;;;;;;;;;4977576;28;19933;-68
2021/12/11 13:27:44;;;;;;;;;;;;;;;;;;4983968;28;19921;-65
2021/12/11 13:30:09;;;;;;;;;;;;;;;;;;4977494;28;20001;-65
2021/12/11 13:32:35;;;;;;;;;;;;;;;;;;4979184;28;19922;-65
2021/12/11 13:35:00;;;;;;;;;;;;;;;;;;4985662;28;19918;-71
2021/12/11 13:37:25;;;;;;;;;;;;;;;;;;4978136;28;19953;-68
2021/12/11 13:39:50;;;;;;;;;;;;;;;;;;4990776;28;20609;-67
2021/12/11 13:42:19;;;;;;;;;;;;;;;;;;4977168;28;20386;-66
2021/12/11 13:44:44;;;;;;;;;;;;;;;;;;4979815;28;19925;-65
2021/12/11 13:47:10;;;;;;;;;;;;;;;;;;4984918;28;19925;-69
2021/12/11 13:49:35;;;;;;;;;;;;;;;;;;4978589;28;19917;-70
2021/12/11 13:52:00;;;;;;;;;;;;;;;;;;4998814;28;19917;-68
2021/12/11 13:54:26;;;;;;;;;;;;;;;;;;4979436;28;20222;-68
2021/12/11 13:56:51;;;;;;;;;;;;;;;;;;4977825;28;20332;-70
2021/12/11 13:59:16;;;;;;;;;;;;;;;;;;4999883;28;19921;-64
2021/12/11 14:01:41;;;;;;;;;;;;;;;;;;4978397;28;19918;-69
2021/12/11 14:04:06;;;;;;;;;;;;;;;;;;4987300;28;19917;-72
2021/12/11 14:06:32;;;;;;;;;;;;;;;;;;4981184;28;19996;-67
2021/12/11 14:09:05;;;;;;;;;;;;;;;;;;4980530;28;19914;-66
2021/12/11 14:11:30;;;;;;;;;;;;;;;;;;4985264;28;19949;-69
2021/12/11 14:13:56;;;;;;;;;;;;;;;;;;4980338;28;20438;-68
2021/12/11 14:16:23;;;;;;;;;;;;;;;;;;4984927;28;20298;-69
2021/12/11 14:18:49;;;;;;;;;;;;;;;;;;4997579;28;19918;-64
2021/12/11 14:21:14;;;;;;;;;;;;;;;;;;4987660;28;19926;-66
2021/12/11 14:23:40;;;;;;;;;;;;;;;;;;4985267;28;20430;-67
2021/12/11 14:26:05;;;;;;;;;;;;;;;;;;4982970;28;19976;-68
2021/12/11 14:28:31;;;;;;;;;;;;;;;;;;4983246;28;20639;-75
2021/12/11 14:30:56;;;;;;;;;;;;;;;;;;4985889;28;20259;-68
2021/12/11 14:33:21;;;;;;;;;;;;;;;;;;4981033;28;19917;-69
2021/12/11 14:35:47;;;;;;;;;;;;;;;;;;4984347;28;19925;-74
2021/12/11 14:38:12;;;;;;;;;;;;;;;;;;4980467;28;19996;-68
2021/12/11 14:40:37;;;;;;;;;;;;;;;;;;4981185;28;19922;-72
2021/12/11 14:43:02;;;;;;;;;;;;;;;;;;4985059;28;19924;-70
2021/12/11 14:45:28;;;;;;;;;;;;;;;;;;4981437;28;19918;-69
2021/12/11 14:47:53;;;;;;;;;;;;;;;;;;4985598;28;19922;-66
2021/12/11 14:50:18;;;;;;;;;;;;;;;;;;4982147;28;19917;-70
2021/12/11 14:52:43;;;;;;;;;;;;;;;;;;4982802;28;19921;-74
2021/12/11 14:55:09;;;;;;;;;;;;;;;;;;4986521;28;19924;-72
2021/12/11 14:57:35;;;;;;;;;;;;;;;;;;4983575;28;19949;-68
2021/12/11 15:00:01;;;;;;;;;;;;;;;;;;4990559;28;19926;-71
2021/12/11 15:02:26;;;;;;;;;;;;;;;;;;4980113;28;19956;-69
2021/12/11 15:04:52;;;;;;;;;;;;;;;;;;4980290;28;19918;-66
2021/12/11 15:07:17;;;;;;;;;;;;;;;;;;4986974;28;19917;-68
2021/12/11 15:09:42;;;;;;;;;;;;;;;;;;4977568;28;19922;-69
2021/12/11 15:12:07;;;;;;;;;;;;;;;;;;4983709;28;20008;-67
2021/12/11 15:14:32;;;;;;;;;;;;;;;;;;4980689;28;19917;-73
2021/12/11 15:16:58;;;;;;;;;;;;;;;;;;4971565;28;19918;-71
2021/12/11 15:19:24;;;;;;;;;;;;;;;;;;4986684;28;19956;-68
2021/12/11 15:21:49;;;;;;;;;;;;;;;;;;4979854;28;20247;-68
2021/12/11 15:24:14;;;;;;;;;;;;;;;;;;4999631;28;20512;-71
2021/12/11 15:26:40;;;;;;;;;;;;;;;;;;4995093;28;19922;-67
2021/12/11 15:29:05;;;;;;;;;;;;;;;;;;4983336;28;19918;-68
2021/12/11 15:31:30;;;;;;;;;;;;;;;;;;4987119;28;19953;-64
2021/12/11 15:33:56;;;;;;;;;;;;;;;;;;4982320;28;19963;-72
2021/12/11 15:36:21;;;;;;;;;;;;;;;;;;4985746;28;19969;-67
2021/12/11 15:38:47;;;;;;;;;;;;;;;;;;4980495;28;20538;-74
2021/12/11 15:41:12;;;;;;;;;;;;;;;;;;4978674;28;19922;-65
2021/12/11 15:43:37;;;;;;;;;;;;;;;;;;4986901;28;19921;-71
2021/12/11 15:46:02;;;;;;;;;;;;;;;;;;4980932;28;19918;-67
2021/12/11 15:48:27;;;;;;;;;;;;;;;;;;4987885;28;20414;-68
2021/12/11 15:50:53;;;;;;;;;;;;;;;;;;4982352;28;20364;-71
2021/12/11 15:53:19;;;;;;;;;;;;;;;;;;4979665;28;20111;-69
2021/12/11 15:55:44;;;;;;;;;;;;;;;;;;4987181;28;19913;-71
2021/12/11 15:58:09;;;;;;;;;;;;;;;;;;4980735;28;19918;-66
2021/12/11 16:00:34;;;;;;;;;;;;;;;;;;4990832;28;19926;-70
2021/12/11 16:03:00;;;;;;;;;;;;;;;;;;4979533;28;20485;-72
2021/12/11 16:05:25;;;;;;;;;;;;;;;;;;4980564;28;20334;-70
2021/12/11 16:07:51;;;;;;;;;;;;;;;;;;4983419;28;19918;-69
2021/12/11 16:10:16;;;;;;;;;;;;;;;;;;4976125;28;20382;-68
2021/12/11 16:12:41;;;;;;;;;;;;;;;;;;4983261;28;19925;-72
2021/12/11 16:15:06;;;;;;;;;;;;;;;;;;4979758;28;19968;-71
2021/12/11 16:17:31;;;;;;;;;;;;;;;;;;4970784;28;19973;-70
2021/12/11 16:20:01;;;;;;;;;;;;;;;;;;4986876;28;19922;-68
2021/12/11 16:22:39;;;;;;;;;;;;;;;;;;4979348;28;20216;-70
2021/12/11 16:25:05;;;;;;;;;;;;;;;;;;5000501;28;20056;-65
2021/12/11 16:27:30;;;;;;;;;;;;;;;;;;4978958;28;20008;-68
2021/12/11 16:29:56;;;;;;;;;;;;;;;;;;4979476;28;19925;-68
2021/12/11 16:32:21;;;;;;;;;;;;;;;;;;4984141;28;20208;-75
2021/12/11 16:34:46;;;;;;;;;;;;;;;;;;4979680;28;20004;-66
2021/12/11 16:37:11;;;;;;;;;;;;;;;;;;4986616;28;20036;-68
2021/12/11 16:39:37;;;;;;;;;;;;;;;;;;4979466;28;20056;-71
2021/12/11 16:42:02;;;;;;;;;;;;;;;;;;4965250;28;20379;-69
2021/12/11 16:44:27;;;;;;;;;;;;;;;;;;4985259;28;19918;-66
2021/12/11 16:46:52;;;;;;;;;;;;;;;;;;4978900;28;19914;-64
2021/12/11 16:49:18;;;;;;;;;;;;;;;;;;4987092;28;20025;-70